sensor_id;sensor_type;location;lat;lon;timestamp;temperature;humidity
55121;DHT22;41019;48.512;9.036;2022-12-18T00:01:34;-8.60;91.60
55121;DHT22;41019;48.512;9.036;2022-12-18T00:04:03;-8.70;90.80
55121;DHT22;41019;48.512;9.036;2022-12-18T00:06:30;-8.70;90.60
55121;DHT22;41019;48.512;9.036;2022-12-18T00:08:57;-8.80;90.60
55121;DHT22;41019;48.512;9.036;2022-12-18T00:11:27;-8.60;90.80
55121;DHT22;41019;48.512;9.036;2022-12-18T00:13:55;-8.80;90.30
55121;DHT22;41019;48.512;9.036;2022-12-18T00:16:24;-8.80;90.60
55121;DHT22;41019;48.512;9.036;2022-12-18T00:18:53;-8.90;90.70
55121;DHT22;41019;48.512;9.036;2022-12-18T00:21:20;-8.90;90.30
55121;DHT22;41019;48.512;9.036;2022-12-18T00:23:48;-9.00;90.20
55121;DHT22;41019;48.512;9.036;2022-12-18T00:26:20;-8.50;90.10
55121;DHT22;41019;48.512;9.036;2022-12-18T00:28:49;-9.00;89.30
55121;DHT22;41019;48.512;9.036;2022-12-18T00:31:18;-9.10;88.60
55121;DHT22;41019;48.512;9.036;2022-12-18T00:33:45;-9.10;89.70
55121;DHT22;41019;48.512;9.036;2022-12-18T00:36:14;-9.20;90.00
55121;DHT22;41019;48.512;9.036;2022-12-18T00:38:41;-9.20;88.70
55121;DHT22;41019;48.512;9.036;2022-12-18T00:41:09;-9.20;89.40
55121;DHT22;41019;48.512;9.036;2022-12-18T00:43:36;-9.30;89.70
55121;DHT22;41019;48.512;9.036;2022-12-18T00:46:03;-9.20;90.90
55121;DHT22;41019;48.512;9.036;2022-12-18T00:48:31;-9.20;90.40
55121;DHT22;41019;48.512;9.036;2022-12-18T00:50:57;-9.30;89.10
55121;DHT22;41019;48.512;9.036;2022-12-18T00:53:24;-9.30;90.10
55121;DHT22;41019;48.512;9.036;2022-12-18T00:55:49;-9.30;90.00
55121;DHT22;41019;48.512;9.036;2022-12-18T00:58:17;-9.10;89.20
55121;DHT22;41019;48.512;9.036;2022-12-18T01:00:43;-9.40;87.90
55121;DHT22;41019;48.512;9.036;2022-12-18T01:03:13;-9.50;88.40
55121;DHT22;41019;48.512;9.036;2022-12-18T01:05:40;-9.10;88.70
55121;DHT22;41019;48.512;9.036;2022-12-18T01:08:06;-9.50;88.40
55121;DHT22;41019;48.512;9.036;2022-12-18T01:10:32;-9.40;88.50
55121;DHT22;41019;48.512;9.036;2022-12-18T01:12:58;-9.50;89.20
55121;DHT22;41019;48.512;9.036;2022-12-18T01:15:24;-9.50;90.30
55121;DHT22;41019;48.512;9.036;2022-12-18T01:17:52;-9.60;90.10
55121;DHT22;41019;48.512;9.036;2022-12-18T01:20:18;-9.50;89.40
55121;DHT22;41019;48.512;9.036;2022-12-18T01:22:44;-9.60;87.90
55121;DHT22;41019;48.512;9.036;2022-12-18T01:25:10;-9.60;87.20
55121;DHT22;41019;48.512;9.036;2022-12-18T01:27:35;-9.60;87.50
55121;DHT22;41019;48.512;9.036;2022-12-18T01:30:03;-9.60;87.40
55121;DHT22;41019;48.512;9.036;2022-12-18T01:32:31;-9.60;87.70
55121;DHT22;41019;48.512;9.036;2022-12-18T01:34:57;-9.40;88.90
55121;DHT22;41019;48.512;9.036;2022-12-18T01:37:23;-9.70;87.70
55121;DHT22;41019;48.512;9.036;2022-12-18T01:39:49;-9.70;87.40
55121;DHT22;41019;48.512;9.036;2022-12-18T01:42:17;-8.60;88.40
55121;DHT22;41019;48.512;9.036;2022-12-18T01:47:47;-9.70;89.00
55121;DHT22;41019;48.512;9.036;2022-12-18T01:50:32;-9.80;89.10
55121;DHT22;41019;48.512;9.036;2022-12-18T01:53:12;-9.80;90.10
55121;DHT22;41019;48.512;9.036;2022-12-18T01:55:45;-9.80;90.10
55121;DHT22;41019;48.512;9.036;2022-12-18T01:58:12;-9.80;90.30
55121;DHT22;41019;48.512;9.036;2022-12-18T02:00:38;-9.70;90.40
55121;DHT22;41019;48.512;9.036;2022-12-18T02:03:04;-9.80;90.40
55121;DHT22;41019;48.512;9.036;2022-12-18T02:08:46;-9.70;90.40
55121;DHT22;41019;48.512;9.036;2022-12-18T02:11:31;-9.70;90.40
55121;DHT22;41019;48.512;9.036;2022-12-18T02:14:18;-9.70;90.40
55121;DHT22;41019;48.512;9.036;2022-12-18T02:20:10;-9.60;89.60
55121;DHT22;41019;48.512;9.036;2022-12-18T02:22:43;-9.70;89.30
55121;DHT22;41019;48.512;9.036;2022-12-18T02:25:24;-9.70;89.50
55121;DHT22;41019;48.512;9.036;2022-12-18T02:27:59;-9.60;90.60
55121;DHT22;41019;48.512;9.036;2022-12-18T02:30:28;-9.60;91.20
55121;DHT22;41019;48.512;9.036;2022-12-18T02:32:59;-9.60;91.60
55121;DHT22;41019;48.512;9.036;2022-12-18T02:35:30;-9.50;91.90
55121;DHT22;41019;48.512;9.036;2022-12-18T02:38:00;-9.50;92.00
55121;DHT22;41019;48.512;9.036;2022-12-18T02:40:30;-9.40;92.20
55121;DHT22;41019;48.512;9.036;2022-12-18T02:43:08;-9.40;92.10
55121;DHT22;41019;48.512;9.036;2022-12-18T02:45:35;-9.40;92.30
55121;DHT22;41019;48.512;9.036;2022-12-18T02:48:02;-8.60;92.70
55121;DHT22;41019;48.512;9.036;2022-12-18T02:50:38;-9.30;92.30
55121;DHT22;41019;48.512;9.036;2022-12-18T02:53:33;-9.30;92.50
55121;DHT22;41019;48.512;9.036;2022-12-18T02:56:19;-9.30;92.10
55121;DHT22;41019;48.512;9.036;2022-12-18T02:59:13;-7.70;92.70
55121;DHT22;41019;48.512;9.036;2022-12-18T03:02:08;-9.20;92.10
55121;DHT22;41019;48.512;9.036;2022-12-18T03:04:53;-9.20;92.30
55121;DHT22;41019;48.512;9.036;2022-12-18T03:07:33;-9.20;92.20
55121;DHT22;41019;48.512;9.036;2022-12-18T03:10:00;-9.20;91.90
55121;DHT22;41019;48.512;9.036;2022-12-18T03:12:37;-9.20;92.00
55121;DHT22;41019;48.512;9.036;2022-12-18T03:15:20;-9.20;91.80
55121;DHT22;41019;48.512;9.036;2022-12-18T03:18:07;-9.20;92.00
55121;DHT22;41019;48.512;9.036;2022-12-18T03:20:37;-9.20;91.70
55121;DHT22;41019;48.512;9.036;2022-12-18T03:23:13;-9.20;91.70
55121;DHT22;41019;48.512;9.036;2022-12-18T03:25:44;-9.20;91.80
55121;DHT22;41019;48.512;9.036;2022-12-18T03:28:15;-9.30;91.80
55121;DHT22;41019;48.512;9.036;2022-12-18T03:30:46;-9.30;91.70
55121;DHT22;41019;48.512;9.036;2022-12-18T03:33:24;-9.30;91.60
55121;DHT22;41019;48.512;9.036;2022-12-18T03:35:53;-9.10;91.80
55121;DHT22;41019;48.512;9.036;2022-12-18T03:38:20;-9.30;91.70
55121;DHT22;41019;48.512;9.036;2022-12-18T03:41:25;-9.30;91.70
55121;DHT22;41019;48.512;9.036;2022-12-18T03:44:36;-9.30;91.30
55121;DHT22;41019;48.512;9.036;2022-12-18T03:47:21;-9.30;91.30
55121;DHT22;41019;48.512;9.036;2022-12-18T03:52:57;-9.30;91.40
55121;DHT22;41019;48.512;9.036;2022-12-18T03:55:32;-9.30;91.70
55121;DHT22;41019;48.512;9.036;2022-12-18T03:58:05;-9.30;91.90
55121;DHT22;41019;48.512;9.036;2022-12-18T04:00:47;-9.30;92.20
55121;DHT22;41019;48.512;9.036;2022-12-18T04:03:14;-9.30;92.00
55121;DHT22;41019;48.512;9.036;2022-12-18T04:05:50;-9.20;91.60
55121;DHT22;41019;48.512;9.036;2022-12-18T04:08:20;-9.30;92.00
55121;DHT22;41019;48.512;9.036;2022-12-18T04:10:56;-9.30;92.10
55121;DHT22;41019;48.512;9.036;2022-12-18T04:13:24;-9.30;92.50
55121;DHT22;41019;48.512;9.036;2022-12-18T04:15:51;-8.90;92.60
55121;DHT22;41019;48.512;9.036;2022-12-18T04:18:19;-9.30;92.70
55121;DHT22;41019;48.512;9.036;2022-12-18T04:20:46;-9.30;92.80
55121;DHT22;41019;48.512;9.036;2022-12-18T04:23:12;-9.30;92.40
55121;DHT22;41019;48.512;9.036;2022-12-18T04:25:38;-9.30;92.60
55121;DHT22;41019;48.512;9.036;2022-12-18T04:28:08;-9.00;92.60
55121;DHT22;41019;48.512;9.036;2022-12-18T04:30:35;-9.20;92.80
55121;DHT22;41019;48.512;9.036;2022-12-18T04:33:01;-8.10;93.10
55121;DHT22;41019;48.512;9.036;2022-12-18T04:35:29;-9.30;92.50
55121;DHT22;41019;48.512;9.036;2022-12-18T04:37:56;-9.20;92.80
55121;DHT22;41019;48.512;9.036;2022-12-18T04:40:21;-9.20;93.10
55121;DHT22;41019;48.512;9.036;2022-12-18T04:42:48;-9.20;93.00
55121;DHT22;41019;48.512;9.036;2022-12-18T04:45:13;-9.20;92.80
55121;DHT22;41019;48.512;9.036;2022-12-18T04:47:39;-9.20;93.10
55121;DHT22;41019;48.512;9.036;2022-12-18T04:50:06;-9.20;92.70
55121;DHT22;41019;48.512;9.036;2022-12-18T04:52:31;-9.20;92.40
55121;DHT22;41019;48.512;9.036;2022-12-18T04:54:58;-9.20;92.30
55121;DHT22;41019;48.512;9.036;2022-12-18T04:57:23;-9.20;92.30
55121;DHT22;41019;48.512;9.036;2022-12-18T04:59:49;-9.20;92.60
55121;DHT22;41019;48.512;9.036;2022-12-18T05:02:15;-9.20;93.20
55121;DHT22;41019;48.512;9.036;2022-12-18T05:04:42;-9.20;93.60
55121;DHT22;41019;48.512;9.036;2022-12-18T05:07:08;-9.20;93.40
55121;DHT22;41019;48.512;9.036;2022-12-18T05:09:33;-9.20;93.30
55121;DHT22;41019;48.512;9.036;2022-12-18T05:11:59;-9.20;93.40
55121;DHT22;41019;48.512;9.036;2022-12-18T05:14:25;-9.10;93.40
55121;DHT22;41019;48.512;9.036;2022-12-18T05:16:53;-9.10;93.20
55121;DHT22;41019;48.512;9.036;2022-12-18T05:19:18;-9.00;93.40
55121;DHT22;41019;48.512;9.036;2022-12-18T05:21:44;-9.20;93.70
55121;DHT22;41019;48.512;9.036;2022-12-18T05:24:10;-9.10;94.00
55121;DHT22;41019;48.512;9.036;2022-12-18T05:26:36;-9.20;93.80
55121;DHT22;41019;48.512;9.036;2022-12-18T05:29:02;-9.10;93.90
55121;DHT22;41019;48.512;9.036;2022-12-18T05:31:28;-9.00;93.80
55121;DHT22;41019;48.512;9.036;2022-12-18T05:33:54;-9.00;93.50
55121;DHT22;41019;48.512;9.036;2022-12-18T05:36:20;-9.00;93.60
55121;DHT22;41019;48.512;9.036;2022-12-18T05:38:46;-9.10;93.60
55121;DHT22;41019;48.512;9.036;2022-12-18T05:41:12;-8.80;94.00
55121;DHT22;41019;48.512;9.036;2022-12-18T05:43:39;-9.20;94.00
55121;DHT22;41019;48.512;9.036;2022-12-18T05:46:07;-9.10;94.00
55121;DHT22;41019;48.512;9.036;2022-12-18T05:48:34;-7.80;94.10
55121;DHT22;41019;48.512;9.036;2022-12-18T05:51:06;-9.10;93.60
55121;DHT22;41019;48.512;9.036;2022-12-18T05:53:32;-9.10;92.80
55121;DHT22;41019;48.512;9.036;2022-12-18T05:56:10;-9.20;92.60
55121;DHT22;41019;48.512;9.036;2022-12-18T05:58:36;-9.20;92.50
55121;DHT22;41019;48.512;9.036;2022-12-18T06:01:14;-8.70;92.40
55121;DHT22;41019;48.512;9.036;2022-12-18T06:03:40;-9.20;92.30
55121;DHT22;41019;48.512;9.036;2022-12-18T06:06:18;-9.30;91.80
55121;DHT22;41019;48.512;9.036;2022-12-18T06:08:46;-9.30;92.00
55121;DHT22;41019;48.512;9.036;2022-12-18T06:11:12;-9.30;91.80
55121;DHT22;41019;48.512;9.036;2022-12-18T06:13:38;-9.10;91.80
55121;DHT22;41019;48.512;9.036;2022-12-18T06:16:05;-9.20;92.10
55121;DHT22;41019;48.512;9.036;2022-12-18T06:18:32;-9.40;92.30
55121;DHT22;41019;48.512;9.036;2022-12-18T06:20:59;-9.40;92.80
55121;DHT22;41019;48.512;9.036;2022-12-18T06:23:26;-9.20;93.00
55121;DHT22;41019;48.512;9.036;2022-12-18T06:25:52;-9.10;93.00
55121;DHT22;41019;48.512;9.036;2022-12-18T06:28:19;-9.40;92.70
55121;DHT22;41019;48.512;9.036;2022-12-18T06:30:48;-9.40;92.90
55121;DHT22;41019;48.512;9.036;2022-12-18T06:33:15;-9.40;93.00
55121;DHT22;41019;48.512;9.036;2022-12-18T06:35:42;-9.00;93.20
55121;DHT22;41019;48.512;9.036;2022-12-18T06:38:08;-9.40;93.00
55121;DHT22;41019;48.512;9.036;2022-12-18T06:40:34;-9.40;93.00
55121;DHT22;41019;48.512;9.036;2022-12-18T06:43:00;-9.40;92.60
55121;DHT22;41019;48.512;9.036;2022-12-18T06:45:25;-9.40;91.60
55121;DHT22;41019;48.512;9.036;2022-12-18T06:47:51;-9.50;91.20
55121;DHT22;41019;48.512;9.036;2022-12-18T06:50:17;-9.60;91.10
55121;DHT22;41019;48.512;9.036;2022-12-18T06:52:43;-9.60;90.90
55121;DHT22;41019;48.512;9.036;2022-12-18T06:55:11;-9.60;91.00
55121;DHT22;41019;48.512;9.036;2022-12-18T06:57:37;-9.60;91.00
55121;DHT22;41019;48.512;9.036;2022-12-18T07:00:06;-9.70;90.40
55121;DHT22;41019;48.512;9.036;2022-12-18T07:02:32;-9.70;90.60
55121;DHT22;41019;48.512;9.036;2022-12-18T07:04:58;-9.70;90.70
55121;DHT22;41019;48.512;9.036;2022-12-18T07:07:24;-9.80;90.90
55121;DHT22;41019;48.512;9.036;2022-12-18T07:09:51;-9.80;91.00
55121;DHT22;41019;48.512;9.036;2022-12-18T07:12:17;-9.80;90.90
55121;DHT22;41019;48.512;9.036;2022-12-18T07:14:43;-9.80;90.40
55121;DHT22;41019;48.512;9.036;2022-12-18T07:17:09;-9.40;90.30
55121;DHT22;41019;48.512;9.036;2022-12-18T07:19:35;-9.90;90.10
55121;DHT22;41019;48.512;9.036;2022-12-18T07:22:01;-9.50;90.30
55121;DHT22;41019;48.512;9.036;2022-12-18T07:24:27;-9.90;90.40
55121;DHT22;41019;48.512;9.036;2022-12-18T07:26:53;-9.70;90.50
55121;DHT22;41019;48.512;9.036;2022-12-18T07:29:20;-9.50;90.70
55121;DHT22;41019;48.512;9.036;2022-12-18T07:31:46;-9.30;91.20
55121;DHT22;41019;48.512;9.036;2022-12-18T07:34:13;-9.90;91.10
55121;DHT22;41019;48.512;9.036;2022-12-18T07:36:40;-9.90;91.20
55121;DHT22;41019;48.512;9.036;2022-12-18T07:39:07;-9.90;91.20
55121;DHT22;41019;48.512;9.036;2022-12-18T07:41:33;-9.60;91.20
55121;DHT22;41019;48.512;9.036;2022-12-18T07:44:10;-9.90;91.10
55121;DHT22;41019;48.512;9.036;2022-12-18T07:46:36;-9.90;91.00
55121;DHT22;41019;48.512;9.036;2022-12-18T07:49:02;-9.90;90.90
55121;DHT22;41019;48.512;9.036;2022-12-18T07:51:27;-9.70;90.90
55121;DHT22;41019;48.512;9.036;2022-12-18T07:53:53;-9.40;90.80
55121;DHT22;41019;48.512;9.036;2022-12-18T07:56:20;-9.80;90.50
55121;DHT22;41019;48.512;9.036;2022-12-18T07:58:47;-9.50;90.60
55121;DHT22;41019;48.512;9.036;2022-12-18T08:01:13;-10.00;90.40
55121;DHT22;41019;48.512;9.036;2022-12-18T08:03:40;-10.00;90.50
55121;DHT22;41019;48.512;9.036;2022-12-18T08:06:08;-9.90;90.30
55121;DHT22;41019;48.512;9.036;2022-12-18T08:08:35;-9.70;90.20
55121;DHT22;41019;48.512;9.036;2022-12-18T08:11:01;-10.00;90.00
55121;DHT22;41019;48.512;9.036;2022-12-18T08:13:28;-10.00;90.10
55121;DHT22;41019;48.512;9.036;2022-12-18T08:16:03;-9.90;89.90
55121;DHT22;41019;48.512;9.036;2022-12-18T08:18:31;-10.00;90.00
55121;DHT22;41019;48.512;9.036;2022-12-18T08:20:57;-10.00;89.40
55121;DHT22;41019;48.512;9.036;2022-12-18T08:23:23;-9.60;89.80
55121;DHT22;41019;48.512;9.036;2022-12-18T08:25:49;-9.90;89.00
55121;DHT22;41019;48.512;9.036;2022-12-18T08:28:15;-10.00;87.50
55121;DHT22;41019;48.512;9.036;2022-12-18T08:30:41;-10.00;88.10
55121;DHT22;41019;48.512;9.036;2022-12-18T08:33:08;-10.00;87.40
55121;DHT22;41019;48.512;9.036;2022-12-18T08:35:37;-9.60;88.00
55121;DHT22;41019;48.512;9.036;2022-12-18T08:38:03;-9.90;87.80
55121;DHT22;41019;48.512;9.036;2022-12-18T08:40:29;-9.80;86.90
55121;DHT22;41019;48.512;9.036;2022-12-18T08:42:55;-9.80;86.00
55121;DHT22;41019;48.512;9.036;2022-12-18T08:45:39;-9.30;85.90
55121;DHT22;41019;48.512;9.036;2022-12-18T08:48:05;-9.30;86.70
55121;DHT22;41019;48.512;9.036;2022-12-18T08:50:31;-9.50;85.60
55121;DHT22;41019;48.512;9.036;2022-12-18T08:52:57;-9.40;85.30
55121;DHT22;41019;48.512;9.036;2022-12-18T08:55:22;-9.30;85.40
55121;DHT22;41019;48.512;9.036;2022-12-18T08:57:49;-9.30;84.90
55121;DHT22;41019;48.512;9.036;2022-12-18T09:00:15;-9.20;84.20
55121;DHT22;41019;48.512;9.036;2022-12-18T09:02:41;-9.10;83.70
55121;DHT22;41019;48.512;9.036;2022-12-18T09:05:07;-8.90;83.50
55121;DHT22;41019;48.512;9.036;2022-12-18T09:07:33;-9.80;82.40
55121;DHT22;41019;48.512;9.036;2022-12-18T09:09:59;-8.70;82.60
55121;DHT22;41019;48.512;9.036;2022-12-18T09:12:25;-8.70;81.70
55121;DHT22;41019;48.512;9.036;2022-12-18T09:14:50;-8.60;82.00
55121;DHT22;41019;48.512;9.036;2022-12-18T09:17:16;-8.40;81.30
55121;DHT22;41019;48.512;9.036;2022-12-18T09:19:42;-8.40;80.80
55121;DHT22;41019;48.512;9.036;2022-12-18T09:22:08;-8.30;80.70
55121;DHT22;41019;48.512;9.036;2022-12-18T09:24:35;-8.30;80.60
55121;DHT22;41019;48.512;9.036;2022-12-18T09:27:01;-7.80;80.80
55121;DHT22;41019;48.512;9.036;2022-12-18T09:29:27;-8.20;81.00
55121;DHT22;41019;48.512;9.036;2022-12-18T09:31:54;-7.90;81.40
55121;DHT22;41019;48.512;9.036;2022-12-18T09:34:20;-8.10;80.20
55121;DHT22;41019;48.512;9.036;2022-12-18T09:36:47;-8.00;80.70
55121;DHT22;41019;48.512;9.036;2022-12-18T09:39:13;-7.50;81.30
55121;DHT22;41019;48.512;9.036;2022-12-18T09:44:21;-7.70;80.90
55121;DHT22;41019;48.512;9.036;2022-12-18T09:46:56;-7.60;80.60
55121;DHT22;41019;48.512;9.036;2022-12-18T09:49:30;-7.50;79.70
55121;DHT22;41019;48.512;9.036;2022-12-18T09:52:05;-7.30;80.60
55121;DHT22;41019;48.512;9.036;2022-12-18T09:55:02;-7.40;80.00
55121;DHT22;41019;48.512;9.036;2022-12-18T09:57:33;-7.30;81.20
55121;DHT22;41019;48.512;9.036;2022-12-18T10:00:17;-7.20;80.40
55121;DHT22;41019;48.512;9.036;2022-12-18T10:02:45;-7.10;79.30
55121;DHT22;41019;48.512;9.036;2022-12-18T10:05:15;-7.10;79.10
55121;DHT22;41019;48.512;9.036;2022-12-18T10:07:58;-7.00;79.30
55121;DHT22;41019;48.512;9.036;2022-12-18T10:10:48;-7.00;79.50
55121;DHT22;41019;48.512;9.036;2022-12-18T10:13:31;-6.90;79.60
55121;DHT22;41019;48.512;9.036;2022-12-18T10:16:13;-6.90;80.30
55121;DHT22;41019;48.512;9.036;2022-12-18T10:21:32;-6.70;80.30
55121;DHT22;41019;48.512;9.036;2022-12-18T10:26:52;-6.70;79.70
55121;DHT22;41019;48.512;9.036;2022-12-18T10:29:19;-6.70;78.50
55121;DHT22;41019;48.512;9.036;2022-12-18T10:31:45;-6.60;79.10
55121;DHT22;41019;48.512;9.036;2022-12-18T10:34:12;-6.60;79.20
55121;DHT22;41019;48.512;9.036;2022-12-18T10:36:38;-6.50;79.50
55121;DHT22;41019;48.512;9.036;2022-12-18T10:39:19;-5.80;79.70
55121;DHT22;41019;48.512;9.036;2022-12-18T10:41:48;-6.40;78.90
55121;DHT22;41019;48.512;9.036;2022-12-18T10:44:20;-6.40;78.80
55121;DHT22;41019;48.512;9.036;2022-12-18T10:46:49;-6.30;79.10
55121;DHT22;41019;48.512;9.036;2022-12-18T10:49:23;-6.40;79.60
55121;DHT22;41019;48.512;9.036;2022-12-18T10:51:50;-6.30;79.80
55121;DHT22;41019;48.512;9.036;2022-12-18T10:54:21;-6.30;81.00
55121;DHT22;41019;48.512;9.036;2022-12-18T10:56:49;-6.20;80.10
55121;DHT22;41019;48.512;9.036;2022-12-18T10:59:17;-6.30;78.90
55121;DHT22;41019;48.512;9.036;2022-12-18T11:01:53;-6.20;80.40
55121;DHT22;41019;48.512;9.036;2022-12-18T11:04:26;-6.20;80.40
55121;DHT22;41019;48.512;9.036;2022-12-18T11:09:23;-6.20;80.40
55121;DHT22;41019;48.512;9.036;2022-12-18T11:11:51;-6.10;80.10
55121;DHT22;41019;48.512;9.036;2022-12-18T11:14:43;-6.00;80.90
55121;DHT22;41019;48.512;9.036;2022-12-18T11:17:37;-6.10;81.40
55121;DHT22;41019;48.512;9.036;2022-12-18T11:22:59;-6.00;83.00
55121;DHT22;41019;48.512;9.036;2022-12-18T11:25:26;-5.80;84.00
55121;DHT22;41019;48.512;9.036;2022-12-18T11:28:05;-5.70;84.00
55121;DHT22;41019;48.512;9.036;2022-12-18T11:30:35;-5.70;84.50
55121;DHT22;41019;48.512;9.036;2022-12-18T11:33:19;-5.60;85.60
55121;DHT22;41019;48.512;9.036;2022-12-18T11:35:53;-5.40;86.20
55121;DHT22;41019;48.512;9.036;2022-12-18T11:38:28;-5.30;86.80
55121;DHT22;41019;48.512;9.036;2022-12-18T11:44:01;-5.20;87.50
55121;DHT22;41019;48.512;9.036;2022-12-18T11:46:34;-5.10;86.50
55121;DHT22;41019;48.512;9.036;2022-12-18T11:49:13;-5.10;85.80
55121;DHT22;41019;48.512;9.036;2022-12-18T11:52:03;-5.00;84.80
55121;DHT22;41019;48.512;9.036;2022-12-18T11:54:30;-5.00;84.20
55121;DHT22;41019;48.512;9.036;2022-12-18T11:59:53;-4.90;83.40
55121;DHT22;41019;48.512;9.036;2022-12-18T12:21:41;-4.60;84.40
55121;DHT22;41019;48.512;9.036;2022-12-18T12:27:40;-4.50;84.20
55121;DHT22;41019;48.512;9.036;2022-12-18T12:30:39;-4.40;84.30
55121;DHT22;41019;48.512;9.036;2022-12-18T12:33:24;-4.40;85.10
55121;DHT22;41019;48.512;9.036;2022-12-18T12:38:42;-4.30;86.60
55121;DHT22;41019;48.512;9.036;2022-12-18T12:41:13;-4.20;86.20
55121;DHT22;41019;48.512;9.036;2022-12-18T12:44:04;-2.90;85.00
55121;DHT22;41019;48.512;9.036;2022-12-18T12:46:37;-4.20;84.20
55121;DHT22;41019;48.512;9.036;2022-12-18T12:49:16;-4.20;84.10
55121;DHT22;41019;48.512;9.036;2022-12-18T12:51:47;-4.20;85.30
55121;DHT22;41019;48.512;9.036;2022-12-18T12:54:20;-4.20;85.30
55121;DHT22;41019;48.512;9.036;2022-12-18T13:00:07;-4.10;86.00
55121;DHT22;41019;48.512;9.036;2022-12-18T13:05:18;-4.10;86.00
55121;DHT22;41019;48.512;9.036;2022-12-18T13:07:51;-4.10;85.60
55121;DHT22;41019;48.512;9.036;2022-12-18T13:15:34;-4.00;86.00
55121;DHT22;41019;48.512;9.036;2022-12-18T13:34:17;-4.00;88.80
55121;DHT22;41019;48.512;9.036;2022-12-18T13:36:43;-3.90;88.40
55121;DHT22;41019;48.512;9.036;2022-12-18T13:41:47;-3.90;88.60
55121;DHT22;41019;48.512;9.036;2022-12-18T13:44:58;-3.90;88.80
55121;DHT22;41019;48.512;9.036;2022-12-18T13:47:33;-3.90;88.80
55121;DHT22;41019;48.512;9.036;2022-12-18T13:50:03;-4.00;88.80
55121;DHT22;41019;48.512;9.036;2022-12-18T13:52:39;-3.90;88.90
55121;DHT22;41019;48.512;9.036;2022-12-18T13:55:14;-3.90;88.70
55121;DHT22;41019;48.512;9.036;2022-12-18T13:57:42;-3.90;89.30
55121;DHT22;41019;48.512;9.036;2022-12-18T14:00:27;-3.90;89.30
55121;DHT22;41019;48.512;9.036;2022-12-18T14:02:55;-3.90;89.10
55121;DHT22;41019;48.512;9.036;2022-12-18T14:05:34;-3.90;89.20
55121;DHT22;41019;48.512;9.036;2022-12-18T14:08:15;-3.90;90.00
55121;DHT22;41019;48.512;9.036;2022-12-18T14:10:47;-3.90;90.00
55121;DHT22;41019;48.512;9.036;2022-12-18T14:13:29;-3.90;90.10
55121;DHT22;41019;48.512;9.036;2022-12-18T14:15:56;-3.90;90.50
55121;DHT22;41019;48.512;9.036;2022-12-18T14:18:52;-3.90;90.80
55121;DHT22;41019;48.512;9.036;2022-12-18T14:21:24;-3.90;91.10
55121;DHT22;41019;48.512;9.036;2022-12-18T14:26:31;-3.90;91.40
55121;DHT22;41019;48.512;9.036;2022-12-18T14:29:22;-3.90;91.40
55121;DHT22;41019;48.512;9.036;2022-12-18T14:32:12;-3.90;91.30
55121;DHT22;41019;48.512;9.036;2022-12-18T14:34:40;-3.90;91.50
55121;DHT22;41019;48.512;9.036;2022-12-18T14:37:08;-3.90;91.60
55121;DHT22;41019;48.512;9.036;2022-12-18T14:39:35;-3.90;91.60
55121;DHT22;41019;48.512;9.036;2022-12-18T14:42:01;-3.90;91.40
55121;DHT22;41019;48.512;9.036;2022-12-18T14:44:27;-3.90;91.60
55121;DHT22;41019;48.512;9.036;2022-12-18T14:46:52;-3.90;91.70
55121;DHT22;41019;48.512;9.036;2022-12-18T14:49:20;-3.90;91.70
55121;DHT22;41019;48.512;9.036;2022-12-18T14:52:01;-3.90;91.60
55121;DHT22;41019;48.512;9.036;2022-12-18T14:54:28;-3.90;91.80
55121;DHT22;41019;48.512;9.036;2022-12-18T14:57:22;-4.00;91.90
55121;DHT22;41019;48.512;9.036;2022-12-18T14:59:49;-4.00;91.90
55121;DHT22;41019;48.512;9.036;2022-12-18T15:02:24;-4.00;92.10
55121;DHT22;41019;48.512;9.036;2022-12-18T15:05:04;-4.10;92.20
55121;DHT22;41019;48.512;9.036;2022-12-18T15:07:48;-4.10;92.10
55121;DHT22;41019;48.512;9.036;2022-12-18T15:10:20;-4.20;92.10
55121;DHT22;41019;48.512;9.036;2022-12-18T15:18:20;-4.30;92.20
55121;DHT22;41019;48.512;9.036;2022-12-18T15:20:59;-4.40;92.00
55121;DHT22;41019;48.512;9.036;2022-12-18T15:23:38;-4.40;92.10
55121;DHT22;41019;48.512;9.036;2022-12-18T15:26:13;-4.50;92.10
55121;DHT22;41019;48.512;9.036;2022-12-18T15:28:52;-4.50;91.90
55121;DHT22;41019;48.512;9.036;2022-12-18T15:31:29;-4.60;91.80
55121;DHT22;41019;48.512;9.036;2022-12-18T15:36:23;-4.70;91.90
55121;DHT22;41019;48.512;9.036;2022-12-18T15:38:50;-4.80;91.80
55121;DHT22;41019;48.512;9.036;2022-12-18T15:41:19;-4.80;91.80
55121;DHT22;41019;48.512;9.036;2022-12-18T15:43:48;-4.90;92.00
55121;DHT22;41019;48.512;9.036;2022-12-18T15:46:20;-4.90;91.90
55121;DHT22;41019;48.512;9.036;2022-12-18T15:48:48;-5.00;92.10
55121;DHT22;41019;48.512;9.036;2022-12-18T15:51:18;-5.00;92.20
55121;DHT22;41019;48.512;9.036;2022-12-18T15:53:47;-5.00;92.30
55121;DHT22;41019;48.512;9.036;2022-12-18T15:56:15;-5.10;92.20
55121;DHT22;41019;48.512;9.036;2022-12-18T15:59:01;-5.10;92.50
55121;DHT22;41019;48.512;9.036;2022-12-18T16:01:29;-5.10;92.30
55121;DHT22;41019;48.512;9.036;2022-12-18T16:03:56;-5.10;92.30
55121;DHT22;41019;48.512;9.036;2022-12-18T16:06:23;-5.20;92.30
55121;DHT22;41019;48.512;9.036;2022-12-18T16:08:49;-5.30;92.10
55121;DHT22;41019;48.512;9.036;2022-12-18T16:11:27;-5.30;92.10
55121;DHT22;41019;48.512;9.036;2022-12-18T16:14:22;-5.30;92.10
55121;DHT22;41019;48.512;9.036;2022-12-18T16:17:00;-5.40;92.30
55121;DHT22;41019;48.512;9.036;2022-12-18T16:19:27;-5.40;92.60
55121;DHT22;41019;48.512;9.036;2022-12-18T16:21:55;-5.50;92.60
55121;DHT22;41019;48.512;9.036;2022-12-18T16:24:25;-5.50;92.70
55121;DHT22;41019;48.512;9.036;2022-12-18T16:26:52;-5.50;92.70
55121;DHT22;41019;48.512;9.036;2022-12-18T16:29:20;-5.50;92.70
55121;DHT22;41019;48.512;9.036;2022-12-18T16:31:53;-5.50;92.80
55121;DHT22;41019;48.512;9.036;2022-12-18T16:36:50;-5.50;92.80
55121;DHT22;41019;48.512;9.036;2022-12-18T16:39:17;-5.50;92.80
55121;DHT22;41019;48.512;9.036;2022-12-18T16:41:43;-5.50;92.80
55121;DHT22;41019;48.512;9.036;2022-12-18T16:44:09;-5.50;92.90
55121;DHT22;41019;48.512;9.036;2022-12-18T16:46:43;-5.30;93.30
55121;DHT22;41019;48.512;9.036;2022-12-18T16:49:12;-5.40;93.40
55121;DHT22;41019;48.512;9.036;2022-12-18T16:51:38;-5.40;93.70
55121;DHT22;41019;48.512;9.036;2022-12-18T16:54:04;-5.40;93.70
55121;DHT22;41019;48.512;9.036;2022-12-18T16:56:31;-5.40;93.80
55121;DHT22;41019;48.512;9.036;2022-12-18T16:59:00;-5.30;93.80
55121;DHT22;41019;48.512;9.036;2022-12-18T17:01:28;-5.30;93.90
55121;DHT22;41019;48.512;9.036;2022-12-18T17:06:23;-5.30;94.00
55121;DHT22;41019;48.512;9.036;2022-12-18T17:08:58;-5.20;94.00
55121;DHT22;41019;48.512;9.036;2022-12-18T17:11:27;-5.20;94.00
55121;DHT22;41019;48.512;9.036;2022-12-18T17:13:53;-5.20;94.10
55121;DHT22;41019;48.512;9.036;2022-12-18T17:16:19;-5.20;94.20
55121;DHT22;41019;48.512;9.036;2022-12-18T17:18:48;-5.10;94.20
55121;DHT22;41019;48.512;9.036;2022-12-18T17:21:16;-5.10;94.30
55121;DHT22;41019;48.512;9.036;2022-12-18T17:23:43;-5.10;94.60
55121;DHT22;41019;48.512;9.036;2022-12-18T17:26:10;-5.00;94.80
55121;DHT22;41019;48.512;9.036;2022-12-18T17:28:39;-5.00;95.00
55121;DHT22;41019;48.512;9.036;2022-12-18T17:31:21;-5.00;94.70
55121;DHT22;41019;48.512;9.036;2022-12-18T17:33:48;-5.00;94.70
55121;DHT22;41019;48.512;9.036;2022-12-18T17:36:15;-4.90;94.60